Terminal Aerodrome Forecast
Issued by NWS

Home | Current Version | Previous Version | Text Only | Print | Product List | Glossary On
Versions: 1 2 3 4 5 6 7 8 9 10 11 12 13 14 15 16 17 18 19 20 21 22
000
FTUS41 KPBZ 172040 AAA
TAFDUJ
TAF AMD
KDUJ 172040Z 1721/1818 15007KT 1SM -SN OVC020
      TEMPO 1721/1724 1/2SM SN
     FM180100 24010KT 2SM -SN BKN015
     FM180400 26008KT 3SM -SN OVC008
     FM180600 27009KT P6SM BKN015=

USA.gov is the U.S. government's official web portal to all federal, state and local government web resources and services.